Time;durP1;ratioP1;P1;durP2;ratioP2;P2;SDS_P1;SDS_P2;PMS_P1;PMS_P2;Temp;Humidity;BMP_temperature;BMP_pressure;BME280_temperature;BME280_humidity;BME280_pressure;Samples;Min_cycle;Max_cycle;Signal;HPM_P1;HPM_P2
2022/03/24 00:00:09;;;;;;;8.40;4.63;;;;;;;9.06;39.60;97748.34;6156885;23;20185;-86
2022/03/24 00:02:40;;;;;;;10.93;4.70;;;;;;;9.13;39.69;97761.94;6180848;23;20160;-85
2022/03/24 00:05:08;;;;;;;5.00;3.93;;;;;;;9.25;39.91;97744.34;6171117;23;20213;-85
2022/03/24 00:07:35;;;;;;;9.43;4.20;;;;;;;9.15;39.74;97731.75;6172416;23;20173;-84
2022/03/24 00:10:03;;;;;;;8.27;4.17;;;;;;;9.28;39.31;97752.00;6144238;23;20179;-85
2022/03/24 00:12:30;;;;;;;9.97;4.43;;;;;;;9.09;38.89;97701.72;6164780;23;20171;-85
2022/03/24 00:14:58;;;;;;;7.87;4.27;;;;;;;9.26;39.20;97742.59;6149898;23;20175;-84
2022/03/24 00:17:25;;;;;;;8.37;4.33;;;;;;;9.15;40.35;97729.16;6179454;23;20198;-85
2022/03/24 00:19:52;;;;;;;8.67;3.93;;;;;;;9.07;39.81;97724.19;6168912;23;20171;-84
2022/03/24 00:22:21;;;;;;;7.33;4.10;;;;;;;9.18;40.38;97729.91;6133212;23;20683;-85
2022/03/24 00:24:48;;;;;;;7.47;3.93;;;;;;;8.75;39.48;97650.22;6156880;23;20785;-84
2022/03/24 00:27:15;;;;;;;10.30;3.93;;;;;;;8.94;40.84;97702.19;6127339;23;20612;-91
2022/03/24 00:29:45;;;;;;;7.03;4.40;;;;;;;9.02;39.76;97690.75;6149774;23;20195;-88
2022/03/24 00:32:13;;;;;;;9.67;4.50;;;;;;;9.15;40.12;97717.06;6149680;23;20171;-86
2022/03/24 00:34:42;;;;;;;10.73;4.63;;;;;;;9.16;39.60;97708.44;6149158;23;20167;-86
2022/03/24 00:37:09;;;;;;;5.40;3.60;;;;;;;9.21;39.67;97706.53;6124395;23;20187;-86
2022/03/24 00:39:40;;;;;;;8.10;4.50;;;;;;;9.02;39.17;97685.59;6149921;23;20163;-84
2022/03/24 00:42:12;;;;;;;7.83;4.93;;;;;;;9.10;39.84;97703.44;6155701;23;20217;-85
2022/03/24 00:44:42;;;;;;;8.50;4.43;;;;;;;8.96;39.36;97672.00;6128200;23;20175;-86
2022/03/24 00:47:16;;;;;;;10.17;4.53;;;;;;;8.98;40.20;97673.63;6124188;23;20279;-84
2022/03/24 00:49:47;;;;;;;8.47;4.93;;;;;;;8.90;40.20;97664.44;6148697;23;20218;-87
2022/03/24 00:52:18;;;;;;;7.00;4.17;;;;;;;9.09;39.14;97706.91;6104864;23;20184;-92
2022/03/24 00:54:45;;;;;;;8.43;4.57;;;;;;;9.10;39.53;97695.69;6135498;23;20570;-87
2022/03/24 00:57:12;;;;;;;11.43;4.83;;;;;;;9.00;39.52;97684.75;6104597;23;20223;-91
2022/03/24 00:59:40;;;;;;;13.07;4.70;;;;;;;9.05;40.21;97684.63;6155148;23;20179;-93
2022/03/24 01:02:17;;;;;;;9.60;4.80;;;;;;;9.02;39.63;97682.16;6151030;23;20278;-89
2022/03/24 01:04:47;;;;;;;10.50;4.37;;;;;;;8.99;39.57;97672.75;6124140;23;20167;-86
2022/03/24 01:07:14;;;;;;;10.73;4.33;;;;;;;9.10;39.71;97687.94;6149249;23;20177;-85
2022/03/24 01:09:41;;;;;;;7.30;4.03;;;;;;;9.05;39.77;97671.72;6148745;23;20194;-86
2022/03/24 01:12:12;;;;;;;7.90;4.20;;;;;;;9.24;39.22;97690.09;6124138;23;20179;-87
2022/03/24 01:14:44;;;;;;;9.97;4.00;;;;;;;9.15;39.63;97674.91;6147497;23;20175;-86
2022/03/24 01:17:16;;;;;;;9.93;4.37;;;;;;;9.14;39.32;97668.03;6148882;23;20191;-85
2022/03/24 01:19:44;;;;;;;9.03;4.10;;;;;;;9.04;38.73;97651.97;6150746;23;20164;-85
2022/03/24 01:22:13;;;;;;;8.13;4.53;;;;;;;9.14;38.62;97657.69;6126605;23;20290;-86
2022/03/24 01:24:42;;;;;;;6.20;4.27;;;;;;;9.18;38.57;97667.88;6150370;23;20171;-85
2022/03/24 01:27:14;;;;;;;11.57;4.37;;;;;;;9.20;38.30;97657.50;6124977;23;20176;-85
2022/03/24 01:29:42;;;;;;;9.47;4.97;;;;;;;9.16;37.78;97654.16;6148607;23;20477;-86
2022/03/24 01:32:10;;;;;;;7.10;4.13;;;;;;;9.08;38.01;97638.06;6122986;23;20570;-85
2022/03/24 01:34:38;;;;;;;8.20;4.23;;;;;;;9.15;38.41;97647.28;6148929;23;20163;-85
2022/03/24 01:37:06;;;;;;;10.10;4.80;;;;;;;9.17;38.34;97663.59;6122614;23;20195;-85
2022/03/24 01:39:34;;;;;;;6.30;4.07;;;;;;;9.22;38.17;97651.41;6148804;23;20239;-85
2022/03/24 01:42:02;;;;;;;9.47;3.90;;;;;;;9.30;37.78;97664.06;6128520;23;20213;-87
2022/03/24 01:44:30;;;;;;;5.73;3.93;;;;;;;9.19;38.45;97651.47;6163340;23;20163;-94
2022/03/24 01:47:08;;;;;;;5.73;3.80;;;;;;;9.16;38.59;97656.75;6159405;23;20646;-96
2022/03/24 01:49:39;;;;;;;6.70;4.10;;;;;;;9.11;38.65;97657.78;6154786;23;20167;-91
2022/03/24 01:52:13;;;;;;;7.47;4.27;;;;;;;9.04;38.25;97636.47;6155977;23;20167;-88
2022/03/24 01:54:44;;;;;;;5.83;4.13;;;;;;;9.01;38.10;97644.28;6180615;23;20167;-87
2022/03/24 01:57:16;;;;;;;7.97;4.17;;;;;;;9.00;38.13;97640.03;6179563;23;20167;-93
2022/03/24 01:59:48;;;;;;;11.37;4.73;;;;;;;9.04;38.17;97639.03;6179083;23;20175;-87
2022/03/24 02:02:16;;;;;;;8.67;4.07;;;;;;;9.11;37.68;97645.69;6146745;23;20195;-94
2022/03/24 02:04:45;;;;;;;9.20;4.83;;;;;;;9.21;37.73;97638.53;6147594;23;20231;-93
2022/03/24 02:07:16;;;;;;;10.00;4.80;;;;;;;8.83;37.84;97585.44;6133377;23;20169;-90
2022/03/24 02:09:44;;;;;;;7.90;4.03;;;;;;;9.05;37.92;97645.06;6116047;23;20644;-86
2022/03/24 02:12:15;;;;;;;19.13;4.97;;;;;;;8.70;38.74;97597.00;6149704;23;20171;-88
2022/03/24 02:14:43;;;;;;;9.17;4.43;;;;;;;8.99;38.35;97640.91;6125640;23;20206;-84
2022/03/24 02:17:10;;;;;;;11.07;5.07;;;;;;;8.66;38.27;97622.09;6150806;23;20198;-85
2022/03/24 02:19:37;;;;;;;7.50;4.83;;;;;;;8.70;38.18;97633.16;6126341;23;20171;-88
2022/03/24 02:22:29;;;;;;;10.23;5.07;;;;;;;8.69;38.96;97636.66;6150115;23;20199;-85
2022/03/24 02:24:56;;;;;;;9.57;5.00;;;;;;;8.42;38.81;97609.03;6147813;23;20176;-86
2022/03/24 02:27:24;;;;;;;7.07;4.50;;;;;;;8.50;39.22;97602.75;6123955;23;20172;-85
2022/03/24 02:29:51;;;;;;;9.73;4.53;;;;;;;8.58;39.10;97630.94;6152966;23;20597;-85
2022/03/24 02:32:21;;;;;;;11.40;5.00;;;;;;;8.53;39.73;97643.13;6126487;23;20171;-85
2022/03/24 02:34:49;;;;;;;10.30;4.73;;;;;;;8.43;39.69;97631.38;6149387;23;20585;-85
2022/03/24 02:37:20;;;;;;;9.33;5.63;;;;;;;8.37;39.90;97621.19;6126024;23;20573;-88
2022/03/24 02:39:53;;;;;;;10.47;5.10;;;;;;;8.24;40.41;97613.78;6150837;23;20627;-85
2022/03/24 02:42:23;;;;;;;9.20;5.90;;;;;;;8.08;39.74;97603.91;6150856;23;20533;-85
2022/03/24 02:44:57;;;;;;;9.63;5.40;;;;;;;8.07;40.48;97631.47;6151541;23;20191;-85
2022/03/24 02:47:25;;;;;;;9.73;5.50;;;;;;;7.85;40.02;97589.03;6125433;23;20185;-85
2022/03/24 02:49:57;;;;;;;9.83;5.80;;;;;;;7.75;41.07;97613.38;6152321;23;20171;-84
2022/03/24 02:52:25;;;;;;;10.40;5.60;;;;;;;7.81;41.00;97636.41;6124259;23;20664;-85
2022/03/24 02:54:53;;;;;;;15.70;7.80;;;;;;;7.48;41.71;97569.44;6152534;23;20167;-84
2022/03/24 02:57:21;;;;;;;16.87;8.17;;;;;;;7.53;41.32;97588.19;6149374;23;20167;-86
2022/03/24 02:59:48;;;;;;;13.87;7.10;;;;;;;7.61;41.32;97606.88;6125338;23;20167;-85
2022/03/24 03:02:17;;;;;;;14.27;7.07;;;;;;;7.63;41.66;97631.72;6150250;23;20199;-85
2022/03/24 03:04:51;;;;;;;10.53;5.30;;;;;;;7.29;42.37;97605.91;6150752;23;20164;-85
2022/03/24 03:07:20;;;;;;;14.83;7.27;;;;;;;7.40;42.39;97626.28;6151581;23;20235;-86
2022/03/24 03:09:49;;;;;;;11.50;7.13;;;;;;;7.34;42.56;97618.69;6149879;23;20537;-86
2022/03/24 03:12:16;;;;;;;12.60;6.33;;;;;;;7.28;41.91;97606.81;6149454;23;20167;-84
2022/03/24 03:14:46;;;;;;;15.77;6.77;;;;;;;7.24;42.14;97606.94;6150482;23;20517;-84
2022/03/24 03:17:17;;;;;;;9.57;5.93;;;;;;;7.26;42.52;97607.75;6151403;23;20648;-85
2022/03/24 03:19:45;;;;;;;9.77;6.47;;;;;;;7.26;43.14;97623.19;6124353;23;20167;-84
2022/03/24 03:22:17;;;;;;;14.77;7.60;;;;;;;7.22;41.84;97626.72;6151405;23;20207;-88
2022/03/24 03:24:45;;;;;;;16.13;7.10;;;;;;;7.05;42.43;97583.34;6151756;23;20172;-84
2022/03/24 03:27:13;;;;;;;14.67;6.87;;;;;;;7.11;42.03;97606.38;6150591;23;20595;-86
2022/03/24 03:29:42;;;;;;;13.53;7.40;;;;;;;6.94;43.15;97576.75;6155847;23;20171;-88
2022/03/24 03:32:11;;;;;;;13.17;7.27;;;;;;;7.09;43.30;97612.44;6109256;23;20175;-86
2022/03/24 03:34:41;;;;;;;9.90;6.50;;;;;;;7.11;43.62;97618.41;6164178;23;20198;-91
2022/03/24 03:37:12;;;;;;;11.77;6.40;;;;;;;6.80;43.07;97569.31;6141810;23;20168;-96
2022/03/24 03:39:40;;;;;;;12.83;7.00;;;;;;;6.53;43.96;97544.22;6173680;23;20186;-87
2022/03/24 03:42:08;;;;;;;14.13;7.17;;;;;;;6.57;43.69;97535.56;6177749;23;20199;-89
2022/03/24 03:44:36;;;;;;;11.83;7.13;;;;;;;6.86;43.68;97601.81;6176218;23;20162;-92
2022/03/24 03:47:03;;;;;;;12.50;6.90;;;;;;;6.88;43.04;97605.22;6153176;23;20273;-89
2022/03/24 03:49:30;;;;;;;12.60;5.90;;;;;;;6.84;43.79;97598.44;6173590;23;20558;-86
2022/03/24 03:52:17;;;;;;;10.90;6.13;;;;;;;6.67;43.83;97582.50;6161695;23;20163;-88
2022/03/24 03:54:44;;;;;;;14.63;7.13;;;;;;;6.74;44.26;97597.78;6155251;23;20171;-89
2022/03/24 03:57:12;;;;;;;8.87;5.90;;;;;;;6.65;43.88;97604.84;6154237;23;20167;-85
2022/03/24 03:59:39;;;;;;;13.67;7.27;;;;;;;6.55;44.98;97592.16;6155421;23;20183;-85
2022/03/24 04:02:06;;;;;;;14.73;7.30;;;;;;;6.56;45.00;97586.16;6152373;23;20710;-85
2022/03/24 04:04:35;;;;;;;12.93;7.03;;;;;;;6.67;44.45;97597.94;6150527;23;20573;-85
2022/03/24 04:07:03;;;;;;;12.93;7.07;;;;;;;6.65;44.66;97594.56;6151140;23;20244;-86
2022/03/24 04:09:30;;;;;;;13.40;7.87;;;;;;;6.48;43.96;97575.19;6153945;23;20163;-84
2022/03/24 04:11:58;;;;;;;14.13;7.43;;;;;;;6.41;44.59;97581.31;6123997;23;20175;-85
2022/03/24 04:14:25;;;;;;;16.50;8.47;;;;;;;6.22;45.23;97574.03;6150521;23;20237;-84
2022/03/24 04:16:56;;;;;;;16.53;8.43;;;;;;;6.27;45.39;97577.34;6151804;23;20254;-88
2022/03/24 04:19:25;;;;;;;19.83;6.53;;;;;;;6.31;45.15;97574.69;6123164;23;20601;-84
2022/03/24 04:21:53;;;;;;;10.53;5.90;;;;;;;6.20;45.07;97560.34;6151322;23;20225;-85
2022/03/24 04:24:20;;;;;;;11.13;6.30;;;;;;;6.45;45.20;97597.56;6149203;23;20540;-85
2022/03/24 04:26:47;;;;;;;15.53;7.03;;;;;;;6.44;44.95;97575.28;6129421;23;20524;-86
2022/03/24 04:29:15;;;;;;;11.87;6.50;;;;;;;6.54;44.84;97567.34;6152313;23;20167;-84
2022/03/24 04:31:43;;;;;;;13.30;7.23;;;;;;;6.72;45.18;97570.41;6155500;23;20271;-85
2022/03/24 04:34:11;;;;;;;11.40;5.77;;;;;;;6.92;43.90;97583.66;6154920;23;20679;-84
2022/03/24 04:36:38;;;;;;;18.47;6.97;;;;;;;7.04;44.69;97593.69;6154398;23;20173;-86
2022/03/24 04:39:06;;;;;;;14.97;8.70;;;;;;;6.88;44.72;97557.16;6127491;23;20241;-83
2022/03/24 04:41:35;;;;;;;18.30;7.27;;;;;;;7.09;44.20;97581.56;6152657;23;20515;-85
2022/03/24 04:44:03;;;;;;;14.87;8.00;;;;;;;7.26;43.38;97569.94;6151877;23;20517;-85
2022/03/24 04:46:33;;;;;;;14.07;8.83;;;;;;;7.39;44.15;97591.13;6149766;23;20170;-85
2022/03/24 04:49:02;;;;;;;18.77;9.93;;;;;;;7.44;43.82;97604.72;6124214;23;20176;-84
2022/03/24 04:51:29;;;;;;;14.57;8.47;;;;;;;7.37;43.85;97604.03;6122507;23;20171;-86
2022/03/24 04:54:08;;;;;;;11.03;7.60;;;;;;;7.23;43.48;97571.78;6149286;23;20244;-85
2022/03/24 04:56:35;;;;;;;13.20;7.47;;;;;;;7.12;43.88;97566.88;6150950;23;20186;-85
2022/03/24 04:59:02;;;;;;;13.77;8.60;;;;;;;7.34;43.41;97568.03;6152182;23;20522;-84
2022/03/24 05:01:29;;;;;;;17.10;8.77;;;;;;;7.51;43.66;97580.50;6151730;23;20595;-84
2022/03/24 05:03:57;;;;;;;252.30;75.97;;;;;;;7.91;43.57;97593.22;6152040;23;20163;-84
2022/03/24 05:06:24;;;;;;;117.30;35.90;;;;;;;8.15;42.97;97582.22;6153762;23;20164;-85
2022/03/24 05:08:51;;;;;;;13.67;6.33;;;;;;;8.50;42.35;97550.28;6128111;23;20364;-85
2022/03/24 05:11:19;;;;;;;15.17;6.97;;;;;;;8.94;42.04;97560.13;6154624;23;20173;-85
2022/03/24 05:13:48;;;;;;;19.83;9.57;;;;;;;9.34;41.63;97588.97;6149980;23;20178;-85
2022/03/24 05:16:15;;;;;;;17.10;8.53;;;;;;;9.22;41.44;97568.69;6154849;23;20307;-84
2022/03/24 05:18:42;;;;;;;17.23;9.07;;;;;;;9.37;41.71;97557.03;6174528;23;20215;-84
2022/03/24 05:21:10;;;;;;;21.77;8.47;;;;;;;9.79;41.00;97579.72;6147161;23;20579;-84
2022/03/24 05:23:37;;;;;;;12.90;6.80;;;;;;;9.97;40.36;97559.28;6144447;23;20206;-85
2022/03/24 05:26:04;;;;;;;16.27;7.10;;;;;;;10.40;40.08;97581.03;6146658;23;20168;-89
2022/03/24 05:28:32;;;;;;;13.63;7.63;;;;;;;10.56;39.89;97573.53;6165242;23;20167;-85
2022/03/24 05:31:00;;;;;;;11.70;6.07;;;;;;;10.78;39.65;97582.19;6142368;23;20171;-89
2022/03/24 05:33:27;;;;;;;9.50;5.33;;;;;;;10.92;38.96;97579.91;6169378;23;20169;-87
2022/03/24 05:35:54;;;;;;;11.07;6.37;;;;;;;10.92;38.79;97560.94;6174710;23;20180;-86
2022/03/24 05:38:24;;;;;;;14.97;8.57;;;;;;;11.08;39.07;97577.56;6164490;22;20201;-91
2022/03/24 05:40:51;;;;;;;18.10;8.77;;;;;;;10.91;38.97;97543.69;6248351;23;20200;-89
2022/03/24 05:43:19;;;;;;;18.30;8.73;;;;;;;11.17;38.41;97575.44;6253721;22;21246;-93
2022/03/24 05:45:48;;;;;;;19.60;8.97;;;;;;;11.15;38.08;97556.53;6215306;22;20237;-86
2022/03/24 05:48:16;;;;;;;15.63;8.83;;;;;;;11.03;38.69;97572.56;6265554;22;20179;-96
2022/03/24 05:51:05;;;;;;;28.80;14.10;;;;;;;11.16;38.76;97578.97;6293526;22;20185;-90
2022/03/24 05:53:33;;;;;;;17.47;10.60;;;;;;;11.06;38.86;97564.69;6287727;22;20177;-86
2022/03/24 05:56:01;;;;;;;16.20;8.40;;;;;;;11.05;38.53;97554.34;6281794;22;20165;-85
2022/03/24 05:58:28;;;;;;;23.97;10.53;;;;;;;11.04;39.07;97553.53;6254158;22;20177;-87
2022/03/24 06:00:55;;;;;;;18.37;9.77;;;;;;;11.10;38.79;97553.28;6279049;22;20224;-85
2022/03/24 06:03:29;;;;;;;14.03;6.73;;;;;;;11.55;37.61;97578.25;6279897;22;20293;-86
2022/03/24 06:05:59;;;;;;;10.43;6.07;;;;;;;11.81;37.01;97581.50;6281000;22;20623;-85
2022/03/24 06:08:30;;;;;;;12.93;5.90;;;;;;;11.88;35.90;97571.69;6255876;22;20166;-85
2022/03/24 06:11:00;;;;;;;9.13;5.20;;;;;;;11.98;35.71;97550.47;6280580;22;20165;-85
2022/03/24 06:13:31;;;;;;;11.37;5.73;;;;;;;12.06;36.08;97553.59;6290728;22;20161;-84
2022/03/24 06:16:01;;;;;;;8.93;4.80;;;;;;;12.05;35.55;97517.31;6233609;22;20163;-84
2022/03/24 06:18:32;;;;;;;11.50;5.77;;;;;;;12.28;34.83;97556.09;6289039;22;20186;-86
2022/03/24 06:21:01;;;;;;;9.00;4.90;;;;;;;12.56;34.84;97579.06;6230924;22;20227;-85
2022/03/24 06:23:33;;;;;;;10.33;5.67;;;;;;;12.58;34.69;97556.47;6259724;22;20195;-87
2022/03/24 06:26:01;;;;;;;9.07;5.00;;;;;;;12.69;34.56;97575.88;6286516;22;20243;-86
2022/03/24 06:28:29;;;;;;;10.73;5.30;;;;;;;12.51;34.08;97545.50;6233756;22;20178;-87
2022/03/24 06:30:56;;;;;;;12.30;5.20;;;;;;;12.76;33.60;97566.88;6264889;22;20159;-84
2022/03/24 06:33:25;;;;;;;10.57;5.47;;;;;;;12.94;33.27;97580.78;6289446;22;20190;-83
2022/03/24 06:35:53;;;;;;;14.57;5.63;;;;;;;12.90;33.15;97546.28;6300033;22;20160;-84
2022/03/24 06:38:21;;;;;;;13.33;6.27;;;;;;;12.90;33.39;97551.47;6299691;22;20218;-85
2022/03/24 06:40:51;;;;;;;10.40;6.43;;;;;;;13.18;33.28;97578.81;6288291;22;20199;-85
2022/03/24 06:43:20;;;;;;;10.77;5.53;;;;;;;13.16;32.89;97559.84;6289512;22;20206;-84
2022/03/24 06:45:49;;;;;;;8.47;5.33;;;;;;;13.09;32.98;97541.06;6283872;22;20256;-85
2022/03/24 06:48:18;;;;;;;9.27;5.53;;;;;;;13.23;32.07;97567.25;6281963;22;20161;-88
2022/03/24 06:50:45;;;;;;;12.17;6.07;;;;;;;13.03;32.01;97511.00;6262772;22;20173;-86
2022/03/24 06:53:15;;;;;;;10.17;5.53;;;;;;;13.04;32.36;97504.88;6265592;22;20170;-94
2022/03/24 06:55:48;;;;;;;12.93;5.67;;;;;;;13.44;31.90;97550.63;6294560;22;20157;-85
2022/03/24 06:58:20;;;;;;;10.90;6.00;;;;;;;13.62;31.05;97559.31;6263642;22;20183;-84
2022/03/24 07:00:47;;;;;;;7.83;4.80;;;;;;;13.67;31.31;97570.31;6243913;22;20168;-88
2022/03/24 07:03:19;;;;;;;9.67;5.77;;;;;;;13.69;31.96;97555.47;6238842;22;20218;-85
2022/03/24 07:05:47;;;;;;;10.73;5.67;;;;;;;13.86;31.06;97571.94;6259504;22;20200;-85
2022/03/24 07:08:16;;;;;;;11.90;6.00;;;;;;;13.90;31.31;97575.22;6279253;22;20191;-85
2022/03/24 07:10:46;;;;;;;13.27;8.83;;;;;;;13.87;30.92;97555.38;6259068;22;20182;-86
2022/03/24 07:13:14;;;;;;;10.97;5.60;;;;;;;14.04;30.78;97564.09;6230056;22;20214;-86
2022/03/24 07:15:42;;;;;;;11.17;5.43;;;;;;;14.12;30.55;97572.34;6286088;22;20176;-85
2022/03/24 07:18:10;;;;;;;14.33;7.80;;;;;;;14.00;30.62;97563.41;6283392;22;20778;-88
2022/03/24 07:20:42;;;;;;;11.93;7.10;;;;;;;14.05;30.97;97558.84;6288525;22;20168;-85
2022/03/24 07:23:12;;;;;;;11.57;6.23;;;;;;;14.05;30.52;97537.16;6261127;22;20233;-90
2022/03/24 07:25:40;;;;;;;15.53;6.50;;;;;;;14.17;30.63;97542.56;6262735;22;20551;-87
2022/03/24 07:28:11;;;;;;;11.33;6.77;;;;;;;14.20;30.72;97531.97;6290307;22;20184;-92
2022/03/24 07:30:43;;;;;;;12.93;6.67;;;;;;;14.20;30.25;97531.16;6267919;22;20157;-85
2022/03/24 07:33:12;;;;;;;15.00;6.53;;;;;;;14.50;30.15;97566.88;6264665;22;20194;-88
2022/03/24 07:35:41;;;;;;;9.43;5.53;;;;;;;14.56;29.31;97570.94;6265284;22;20176;-93
2022/03/24 07:38:09;;;;;;;9.30;6.30;;;;;;;14.50;29.41;97559.06;6215765;22;20163;-89
2022/03/24 07:40:46;;;;;;;17.73;7.07;;;;;;;14.50;29.41;97555.63;6267672;22;20188;-88
2022/03/24 07:43:15;;;;;;;11.77;6.47;;;;;;;14.27;29.17;97528.13;6268471;22;20254;-85
2022/03/24 07:45:42;;;;;;;13.67;7.87;;;;;;;14.49;29.47;97561.75;6282302;22;20219;-85
2022/03/24 07:48:11;;;;;;;14.90;8.20;;;;;;;14.60;29.67;97555.03;6276326;22;20161;-91
2022/03/24 07:50:42;;;;;;;11.40;6.20;;;;;;;14.68;28.97;97549.41;6270937;22;20184;-90
2022/03/24 07:53:34;;;;;;;11.33;7.00;;;;;;;14.82;29.27;97566.94;6219557;22;20169;-88
2022/03/24 07:56:03;;;;;;;8.20;6.03;;;;;;;14.63;29.29;97549.66;6272738;22;20164;-92
2022/03/24 07:58:32;;;;;;;14.00;7.57;;;;;;;14.66;29.16;97551.25;6249282;22;20173;-89
2022/03/24 08:01:01;;;;;;;11.40;6.70;;;;;;;14.49;28.30;97554.75;6248708;22;20164;-91
2022/03/24 08:03:28;;;;;;;13.43;8.67;;;;;;;14.53;29.07;97558.03;6244260;22;20692;-92
2022/03/24 08:05:56;;;;;;;11.30;6.70;;;;;;;14.74;29.23;97559.50;6273212;22;20222;-88
2022/03/24 08:08:26;;;;;;;11.07;6.67;;;;;;;14.96;28.76;97557.41;6271121;22;20223;-89
2022/03/24 08:10:54;;;;;;;13.40;7.97;;;;;;;15.06;28.52;97562.97;6273133;22;20164;-90
2022/03/24 08:13:22;;;;;;;13.30;7.40;;;;;;;15.16;27.63;97553.72;6220971;22;20583;-89
2022/03/24 08:15:51;;;;;;;10.57;7.07;;;;;;;15.11;27.83;97543.53;6271766;22;20191;-91
2022/03/24 08:18:20;;;;;;;10.73;7.53;;;;;;;15.20;28.41;97547.41;6246292;22;20667;-90
2022/03/24 08:20:48;;;;;;;12.63;8.40;;;;;;;15.06;28.32;97540.34;6223055;22;20200;-93
2022/03/24 08:23:25;;;;;;;10.60;7.47;;;;;;;15.18;27.70;97544.03;6254938;22;20204;-91
2022/03/24 08:26:06;;;;;;;12.03;7.63;;;;;;;15.31;28.07;97558.09;6263682;22;20192;-85
2022/03/24 08:28:38;;;;;;;11.50;7.13;;;;;;;15.29;27.52;97542.50;6293417;22;20168;-87
2022/03/24 08:31:07;;;;;;;16.57;8.80;;;;;;;15.31;27.44;97532.00;6239092;22;20266;-86
2022/03/24 08:33:41;;;;;;;12.83;7.90;;;;;;;15.40;27.46;97523.63;6237522;22;20171;-90
2022/03/24 08:36:14;;;;;;;16.67;8.90;;;;;;;15.57;27.18;97541.81;6282457;22;20567;-93
2022/03/24 08:38:42;;;;;;;13.33;7.77;;;;;;;15.42;27.42;97508.72;6278511;22;20177;-90
2022/03/24 08:41:16;;;;;;;12.37;7.37;;;;;;;15.05;27.28;97459.56;6277766;22;20172;-85
2022/03/24 08:43:44;;;;;;;14.77;7.60;;;;;;;15.50;27.48;97534.44;6225708;22;20225;-88
2022/03/24 08:46:25;;;;;;;14.37;7.03;;;;;;;15.48;28.05;97544.94;6251527;22;20169;-86
2022/03/24 08:48:55;;;;;;;9.67;6.53;;;;;;;15.46;27.68;97518.94;6202671;22;20323;-89
2022/03/24 08:51:23;;;;;;;12.97;7.67;;;;;;;15.44;27.07;97530.38;6249763;22;20224;-92
2022/03/24 08:53:52;;;;;;;13.20;7.80;;;;;;;15.54;27.12;97536.75;6280087;22;20257;-86
2022/03/24 08:56:21;;;;;;;11.03;7.80;;;;;;;15.56;27.12;97529.66;6253090;22;20168;-86
2022/03/24 08:58:49;;;;;;;11.53;8.67;;;;;;;15.76;26.83;97532.00;6257703;22;20221;-88
2022/03/24 09:01:19;;;;;;;17.93;7.73;;;;;;;15.83;27.24;97528.06;6280619;22;20169;-88
2022/03/24 09:03:51;;;;;;;16.50;7.40;;;;;;;15.67;27.03;97505.56;6225042;22;20208;-88
2022/03/24 09:06:24;;;;;;;14.17;7.33;;;;;;;15.42;26.92;97503.50;6275735;22;20195;-85
2022/03/24 09:08:53;;;;;;;16.70;8.77;;;;;;;15.55;26.64;97533.22;6278297;22;20528;-93
2022/03/24 09:11:20;;;;;;;11.93;7.53;;;;;;;15.60;26.93;97530.34;6225332;22;20169;-91
2022/03/24 09:13:48;;;;;;;13.60;7.57;;;;;;;15.47;26.89;97525.00;6224986;22;20681;-91
2022/03/24 09:16:17;;;;;;;11.47;7.93;;;;;;;15.34;27.62;97523.97;6251220;22;20218;-90
2022/03/24 09:18:47;;;;;;;13.90;7.43;;;;;;;15.63;27.46;97525.78;6249879;22;20222;-91
2022/03/24 09:21:27;;;;;;;9.50;6.80;;;;;;;15.69;26.92;97530.66;6280943;22;20168;-93
2022/03/24 09:23:57;;;;;;;10.50;7.00;;;;;;;15.54;26.71;97509.81;6228417;22;20219;-93
2022/03/24 09:26:25;;;;;;;11.23;7.77;;;;;;;15.72;26.45;97524.41;6280470;22;20184;-91
2022/03/24 09:28:59;;;;;;;9.50;7.57;;;;;;;15.73;26.63;97526.09;6281585;22;20181;-90
2022/03/24 09:31:27;;;;;;;12.23;8.00;;;;;;;15.73;26.67;97507.81;6282176;22;20169;-92
2022/03/24 09:33:55;;;;;;;14.17;7.17;;;;;;;15.92;26.27;97547.59;6255055;22;20166;-86
2022/03/24 09:36:23;;;;;;;14.73;8.73;;;;;;;15.68;26.78;97528.13;6238085;22;20180;-87
2022/03/24 09:38:50;;;;;;;11.47;7.50;;;;;;;15.80;26.99;97540.47;6232731;22;20223;-90
2022/03/24 09:41:27;;;;;;;11.07;7.83;;;;;;;15.63;27.18;97525.78;6284881;22;20174;-91
2022/03/24 09:43:58;;;;;;;14.43;7.67;;;;;;;15.68;26.52;97505.47;6257119;22;20314;-88
2022/03/24 09:46:29;;;;;;;10.53;8.10;;;;;;;16.01;26.37;97529.59;6282110;22;20221;-91
2022/03/24 09:49:00;;;;;;;10.30;7.60;;;;;;;16.13;26.88;97514.97;6254063;22;20234;-91
2022/03/24 09:51:29;;;;;;;14.00;7.87;;;;;;;16.06;26.76;97530.16;6255821;22;20233;-88
2022/03/24 09:53:58;;;;;;;14.97;8.17;;;;;;;16.05;27.04;97518.03;6265583;22;20167;-91
2022/03/24 09:56:29;;;;;;;15.50;8.60;;;;;;;16.15;27.20;97518.31;6266677;22;20223;-87
2022/03/24 09:58:56;;;;;;;13.03;7.40;;;;;;;16.03;27.43;97513.84;6267727;22;20172;-89
2022/03/24 10:01:28;;;;;;;11.07;7.27;;;;;;;16.13;27.34;97531.50;6269093;22;20181;-88
2022/03/24 10:04:11;;;;;;;12.80;7.57;;;;;;;16.15;27.08;97516.56;6266435;22;20288;-89
2022/03/24 10:06:59;;;;;;;14.80;7.63;;;;;;;15.51;28.22;97442.97;6265545;22;20220;-86
2022/03/24 10:09:46;;;;;;;14.87;8.10;;;;;;;16.09;26.23;97500.41;6267934;22;20212;-87
2022/03/24 10:12:33;;;;;;;18.83;8.50;;;;;;;16.42;27.14;97515.81;6244469;22;20232;-90
2022/03/24 10:15:11;;;;;;;12.37;7.30;;;;;;;16.21;27.32;97497.91;6238860;22;20179;-88
2022/03/24 10:17:52;;;;;;;13.43;8.73;;;;;;;16.37;27.41;97470.78;6292506;22;20177;-89
2022/03/24 10:20:26;;;;;;;13.90;8.33;;;;;;;16.40;26.74;97502.84;6288456;22;20210;-88
2022/03/24 10:23:12;;;;;;;12.33;8.80;;;;;;;16.10;26.99;97461.13;6287253;22;20173;-88
2022/03/24 10:25:46;;;;;;;11.37;8.00;;;;;;;16.19;27.32;97471.00;6288315;22;20177;-87
2022/03/24 10:28:19;;;;;;;12.07;7.60;;;;;;;16.33;26.59;97496.28;6286186;22;20193;-85
2022/03/24 10:30:59;;;;;;;16.90;8.83;;;;;;;16.08;26.73;97469.97;6282691;22;20170;-88
2022/03/24 10:33:40;;;;;;;15.37;8.67;;;;;;;16.47;26.83;97487.59;6255805;22;20279;-86
2022/03/24 10:36:25;;;;;;;14.10;8.30;;;;;;;16.39;26.56;97495.06;6256237;22;20173;-85
2022/03/24 10:39:04;;;;;;;12.33;8.40;;;;;;;16.25;27.05;97494.16;6230273;22;20458;-86
2022/03/24 10:41:40;;;;;;;11.83;8.70;;;;;;;16.08;26.35;97459.53;6228304;22;20169;-86
2022/03/24 10:44:14;;;;;;;11.93;7.97;;;;;;;16.26;26.29;97477.53;6256621;22;20195;-87
2022/03/24 10:46:42;;;;;;;13.47;7.40;;;;;;;16.35;26.31;97470.06;6230169;22;20172;-85
2022/03/24 10:49:23;;;;;;;14.77;8.47;;;;;;;16.54;26.01;97478.47;6281573;22;20178;-86
2022/03/24 10:52:00;;;;;;;20.17;8.13;;;;;;;16.59;26.17;97477.25;6253738;22;20228;-87
2022/03/24 10:54:48;;;;;;;14.53;8.67;;;;;;;16.57;25.46;97455.59;6291085;22;20159;-88
2022/03/24 10:57:20;;;;;;;15.07;7.83;;;;;;;16.75;25.43;97414.34;6264195;22;20162;-88
2022/03/24 10:59:58;;;;;;;13.63;7.40;;;;;;;16.88;24.76;97447.47;6291818;22;20193;-87
2022/03/24 11:02:29;;;;;;;13.57;8.37;;;;;;;16.76;24.71;97432.56;6293980;22;20174;-87
2022/03/24 11:05:02;;;;;;;12.77;7.60;;;;;;;17.18;24.56;97449.88;6266315;22;20203;-89
2022/03/24 11:07:30;;;;;;;16.00;8.67;;;;;;;17.16;24.70;97432.59;6293658;22;20178;-90
2022/03/24 11:09:57;;;;;;;13.87;7.70;;;;;;;17.32;24.29;97448.97;6266225;22;20176;-89
2022/03/24 11:12:36;;;;;;;15.10;7.37;;;;;;;17.14;23.76;97426.63;6292784;22;20158;-89
2022/03/24 11:15:06;;;;;;;16.50;7.30;;;;;;;17.15;23.98;97433.53;6293842;22;20218;-91
2022/03/24 11:17:38;;;;;;;10.87;7.67;;;;;;;17.26;24.23;97426.66;6266748;22;20167;-87
2022/03/24 11:20:36;;;;;;;12.37;7.40;;;;;;;17.04;23.75;97426.41;6270540;22;20206;-87
2022/03/24 11:23:19;;;;;;;11.13;6.40;;;;;;;17.18;23.09;97417.63;6215599;22;20169;-89
2022/03/24 11:25:47;;;;;;;13.57;8.60;;;;;;;17.11;23.20;97364.84;6268378;22;20225;-85
2022/03/24 11:28:18;;;;;;;22.93;8.10;;;;;;;17.52;23.44;97412.69;6298181;22;20166;-88
2022/03/24 11:30:48;;;;;;;12.73;7.53;;;;;;;17.30;24.02;97359.22;6260413;22;20250;-91
2022/03/24 11:33:18;;;;;;;10.53;7.10;;;;;;;17.20;24.02;97400.03;6236697;22;20212;-88
2022/03/24 11:35:45;;;;;;;15.57;7.07;;;;;;;17.09;24.66;97357.09;6261788;22;20245;-85
2022/03/24 11:38:13;;;;;;;12.77;7.53;;;;;;;17.40;23.90;97382.06;6262138;22;20190;-85
2022/03/24 11:40:41;;;;;;;11.30;7.20;;;;;;;17.51;23.94;97399.72;6239257;22;20268;-87
2022/03/24 11:43:20;;;;;;;8.87;7.03;;;;;;;17.57;23.47;97399.28;6238190;22;20170;-86
2022/03/24 11:46:05;;;;;;;10.47;6.70;;;;;;;17.47;23.25;97391.19;6264623;22;20171;-92